Terminal Aerodrome Forecast
Issued by NWS Upton, NY

Home | Current Version | Previous Version | Text Only | Print | Product List | Glossary On
Versions: 1 2 3 4 5 6 7 8 9 10 11 12 13 14 15 16 17 18 19 20 21 22 23 24 25 26 27 28 29 30 31 32
000
FTUS41 KOKX 241940 AAA
TAFEWR
TAF AMD
KEWR 241940Z 2420/2524 22011G19KT P6SM SCT250
     FM250100 22009KT P6SM BKN250
     FM250400 22005KT P6SM BKN150
     FM251500 22012G19KT P6SM SCT150 BKN200
     FM252100 20016G21KT P6SM SCT250=

USA.gov is the U.S. government's official web portal to all federal, state and local government web resources and services.